createdAt,value
2023-03-20T00:00:34.156Z,8.87
2023-03-20T00:03:02.627Z,8.87
2023-03-20T00:05:32.035Z,9.25
2023-03-20T00:08:01.930Z,8.93
2023-03-20T00:10:35.740Z,9.10
2023-03-20T00:13:04.680Z,9.20
2023-03-20T00:15:34.908Z,8.50
2023-03-20T00:18:02.968Z,9.13
2023-03-20T00:20:31.756Z,7.93
2023-03-20T00:23:00.878Z,8.10
2023-03-20T00:25:29.224Z,8.00
2023-03-20T00:27:57.111Z,8.30
2023-03-20T00:30:30.192Z,8.80
2023-03-20T00:32:59.614Z,7.60
2023-03-20T00:35:30.189Z,8.83
2023-03-20T00:37:59.104Z,8.47
2023-03-20T00:40:32.239Z,7.70
2023-03-20T00:43:02.158Z,8.20
2023-03-20T00:45:31.216Z,8.52
2023-03-20T00:47:59.547Z,7.82
2023-03-20T00:50:30.599Z,9.33
2023-03-20T00:52:59.707Z,8.80
2023-03-20T00:55:31.010Z,10.27
2023-03-20T00:58:01.335Z,10.13
2023-03-20T01:00:38.705Z,9.87
2023-03-20T01:03:13.922Z,9.47
2023-03-20T01:05:42.075Z,10.60
2023-03-20T01:08:18.342Z,11.00
2023-03-20T01:10:49.133Z,10.43
2023-03-20T01:13:21.862Z,11.90
2023-03-20T01:15:51.527Z,11.23
2023-03-20T01:18:20.777Z,11.27
2023-03-20T01:20:49.772Z,12.07
2023-03-20T01:23:18.282Z,12.37
2023-03-20T01:25:47.397Z,12.67
2023-03-20T01:28:18.360Z,12.07
2023-03-20T01:30:47.558Z,12.23
2023-03-20T01:33:17.710Z,11.73
2023-03-20T01:35:46.490Z,11.83
2023-03-20T01:38:16.654Z,11.90
2023-03-20T01:40:54.030Z,11.83
2023-03-20T01:43:24.076Z,11.47
2023-03-20T01:46:00.367Z,11.60
2023-03-20T01:48:37.832Z,11.60
2023-03-20T01:51:05.942Z,11.53
2023-03-20T01:53:33.754Z,11.03
2023-03-20T01:56:02.872Z,11.03
2023-03-20T01:58:37.176Z,10.70
2023-03-20T02:01:06.339Z,10.63
2023-03-20T02:03:35.374Z,9.50
2023-03-20T02:06:03.155Z,9.13
2023-03-20T02:08:32.703Z,9.50
2023-03-20T02:11:05.231Z,10.37
2023-03-20T02:13:34.279Z,9.73
2023-03-20T02:16:08.444Z,10.17
2023-03-20T02:18:36.502Z,9.67
2023-03-20T02:21:42.457Z,10.40
2023-03-20T02:24:38.512Z,10.60
2023-03-20T02:27:13.951Z,11.13
2023-03-20T02:30:19.285Z,10.87
2023-03-20T02:33:18.218Z,11.37
2023-03-20T02:36:22.216Z,11.10
2023-03-20T02:39:06.440Z,12.13
2023-03-20T02:41:39.903Z,11.60
2023-03-20T02:44:13.954Z,11.30
2023-03-20T02:46:52.714Z,11.13
2023-03-20T02:49:32.117Z,10.40
2023-03-20T02:52:06.163Z,9.90
2023-03-20T02:54:42.949Z,10.97
2023-03-20T02:57:17.845Z,11.00
2023-03-20T02:59:55.557Z,10.70
2023-03-20T03:02:29.951Z,11.00
2023-03-20T03:05:02.399Z,10.67
2023-03-20T03:07:33.721Z,10.73
2023-03-20T03:10:08.165Z,10.87
2023-03-20T03:12:39.424Z,10.60
2023-03-20T03:15:12.006Z,10.87
2023-03-20T03:17:41.322Z,11.07
2023-03-20T03:20:16.718Z,9.83
2023-03-20T03:22:44.536Z,10.10
2023-03-20T03:25:13.977Z,10.17
2023-03-20T03:27:44.462Z,9.00
2023-03-20T03:30:17.144Z,9.47
2023-03-20T03:32:47.766Z,8.67
2023-03-20T03:35:18.446Z,8.90
2023-03-20T03:37:57.204Z,9.13
2023-03-20T03:40:33.327Z,9.50
2023-03-20T03:43:04.909Z,9.27
2023-03-20T03:45:37.445Z,10.33
2023-03-20T03:48:09.956Z,9.63
2023-03-20T03:50:46.357Z,8.90
2023-03-20T03:53:15.389Z,8.33
2023-03-20T03:55:49.155Z,8.73
2023-03-20T03:58:20.139Z,8.90
2023-03-20T04:00:50.673Z,8.40
2023-03-20T04:03:20.658Z,7.60
2023-03-20T04:05:50.642Z,7.70
2023-03-20T04:08:18.374Z,7.80
2023-03-20T04:10:47.444Z,14.30
2023-03-20T04:13:16.419Z,9.90
2023-03-20T04:15:44.236Z,10.37
2023-03-20T04:18:17.157Z,9.80
2023-03-20T04:20:45.297Z,9.87
2023-03-20T04:23:13.144Z,9.77
2023-03-20T04:25:40.989Z,10.07
2023-03-20T04:28:11.597Z,9.53
2023-03-20T04:30:39.464Z,8.73
2023-03-20T04:33:07.361Z,9.07
2023-03-20T04:35:35.525Z,10.27
2023-03-20T04:38:03.566Z,9.80
2023-03-20T04:40:31.831Z,10.70
2023-03-20T04:42:59.542Z,10.13
2023-03-20T04:45:28.579Z,9.63
2023-03-20T04:47:56.299Z,10.43
2023-03-20T04:50:24.439Z,9.37
2023-03-20T04:52:52.183Z,11.07
2023-03-20T04:55:19.879Z,11.40
2023-03-20T04:57:47.582Z,11.77
2023-03-20T05:00:16.089Z,10.53
2023-03-20T05:02:45.588Z,10.63
2023-03-20T05:05:13.281Z,10.53
2023-03-20T05:07:41.059Z,10.10
2023-03-20T05:10:09.905Z,9.27
2023-03-20T05:12:37.694Z,8.67
2023-03-20T05:15:05.971Z,8.90
2023-03-20T05:17:33.738Z,10.00
2023-03-20T05:20:02.798Z,9.00
2023-03-20T05:22:30.605Z,9.43
2023-03-20T05:24:58.335Z,9.17
2023-03-20T05:27:26.068Z,10.33
2023-03-20T05:29:53.796Z,10.53
2023-03-20T05:32:21.623Z,10.53
2023-03-20T05:34:49.336Z,10.30
2023-03-20T05:37:18.340Z,9.60
2023-03-20T05:39:46.376Z,9.47
2023-03-20T05:42:14.063Z,9.10
2023-03-20T05:44:42.088Z,8.90
2023-03-20T05:47:09.822Z,9.40
2023-03-20T05:49:37.545Z,9.10
2023-03-20T05:52:05.307Z,9.10
2023-03-20T05:54:34.375Z,9.53
2023-03-20T05:57:02.203Z,8.70
2023-03-20T05:59:29.957Z,9.77
2023-03-20T06:01:57.645Z,9.67
2023-03-20T06:04:25.896Z,9.80
2023-03-20T06:06:53.584Z,9.33
2023-03-20T06:09:21.535Z,9.33
2023-03-20T06:11:50.623Z,9.60
2023-03-20T06:14:18.320Z,10.23
2023-03-20T06:16:46.831Z,9.77
2023-03-20T06:19:14.597Z,10.10
2023-03-20T06:21:42.431Z,11.03
2023-03-20T06:24:10.277Z,10.30
2023-03-20T06:26:38.089Z,10.47
2023-03-20T06:29:07.485Z,10.27
2023-03-20T06:31:35.303Z,10.53
2023-03-20T06:34:03.573Z,9.63
2023-03-20T06:36:31.421Z,9.50
2023-03-20T06:38:59.252Z,9.13
2023-03-20T06:41:34.124Z,8.43
2023-03-20T06:44:02.281Z,9.90
2023-03-20T06:46:31.555Z,9.87
2023-03-20T06:48:59.417Z,10.03
2023-03-20T06:51:27.101Z,11.77
2023-03-20T06:53:54.820Z,12.03
2023-03-20T06:56:22.545Z,12.63
2023-03-20T06:58:50.398Z,12.60
2023-03-20T07:01:20.313Z,13.80
2023-03-20T07:03:49.643Z,14.47
2023-03-20T07:06:18.391Z,15.60
2023-03-20T07:08:46.421Z,16.07
2023-03-20T07:11:14.382Z,16.37
2023-03-20T07:13:42.117Z,17.60
2023-03-20T07:16:10.648Z,18.33
2023-03-20T07:18:38.683Z,18.97
2023-03-20T07:21:08.928Z,18.27
2023-03-20T07:23:37.171Z,19.80
2023-03-20T07:26:05.515Z,20.13
2023-03-20T07:28:33.305Z,21.70
2023-03-20T07:31:01.142Z,22.33
2023-03-20T07:33:28.906Z,21.50
2023-03-20T07:35:57.062Z,23.47
2023-03-20T07:38:26.233Z,22.97
2023-03-20T07:40:55.356Z,23.17
2023-03-20T07:43:23.376Z,25.43
2023-03-20T07:45:51.520Z,25.97
2023-03-20T07:48:19.291Z,26.37
2023-03-20T07:50:47.105Z,24.20
2023-03-20T07:53:15.101Z,25.10
2023-03-20T07:55:45.188Z,25.50
2023-03-20T07:58:12.971Z,24.30
2023-03-20T08:00:41.275Z,23.13
2023-03-20T08:03:09.274Z,23.03
2023-03-20T08:05:37.565Z,22.17
2023-03-20T08:08:05.719Z,23.57
2023-03-20T08:10:33.759Z,23.33
2023-03-20T08:13:03.039Z,25.07
2023-03-20T08:15:30.951Z,24.13
2023-03-20T08:17:58.831Z,24.10
2023-03-20T08:20:27.169Z,24.07
2023-03-20T08:22:55.006Z,23.23
2023-03-20T08:25:22.895Z,23.63
2023-03-20T08:27:50.763Z,22.97
2023-03-20T08:30:19.988Z,23.00
2023-03-20T08:32:47.760Z,21.07
2023-03-20T08:35:31.743Z,21.17
2023-03-20T08:38:00.008Z,21.10
2023-03-20T08:40:27.879Z,20.43
2023-03-20T08:42:55.638Z,20.97
2023-03-20T08:45:26.147Z,21.43
2023-03-20T08:47:54.906Z,21.17
2023-03-20T08:50:22.631Z,21.37
2023-03-20T08:52:50.586Z,22.13
2023-03-20T08:55:19.698Z,22.40
2023-03-20T08:57:47.730Z,24.20
2023-03-20T09:00:17.040Z,23.20
2023-03-20T09:02:46.104Z,23.03
2023-03-20T09:05:13.843Z,21.33
2023-03-20T09:07:41.603Z,22.87
2023-03-20T09:10:11.210Z,19.37
2023-03-20T09:12:39.465Z,19.10
2023-03-20T09:15:08.342Z,19.10
2023-03-20T09:17:36.045Z,18.10
2023-03-20T09:20:06.355Z,18.00
2023-03-20T09:22:34.471Z,17.40
2023-03-20T09:25:02.184Z,18.30
2023-03-20T09:27:29.923Z,17.17
2023-03-20T09:29:57.674Z,16.25
2023-03-20T09:32:25.711Z,16.33
2023-03-20T09:34:53.606Z,16.20
2023-03-20T09:37:22.642Z,16.27
2023-03-20T09:39:50.370Z,15.35
2023-03-20T09:42:31.688Z,15.05
2023-03-20T09:45:06.924Z,15.50
2023-03-20T09:47:41.640Z,15.30
2023-03-20T09:50:22.423Z,15.03
2023-03-20T09:52:57.433Z,15.53
2023-03-20T09:55:31.062Z,15.77
2023-03-20T09:58:02.558Z,15.38
2023-03-20T10:00:33.641Z,14.43
2023-03-20T10:03:02.765Z,13.93
2023-03-20T10:05:33.656Z,13.52
2023-03-20T10:08:04.682Z,13.43
2023-03-20T10:10:40.602Z,12.73
2023-03-20T10:13:24.346Z,12.65
2023-03-20T10:15:57.016Z,13.10
2023-03-20T10:18:27.394Z,12.30
2023-03-20T10:20:58.841Z,11.17
2023-03-20T10:23:37.065Z,12.07
2023-03-20T10:26:11.215Z,10.70
2023-03-20T10:28:44.511Z,11.88
2023-03-20T10:31:25.967Z,11.60
2023-03-20T10:34:04.072Z,10.45
2023-03-20T10:36:52.052Z,11.77
2023-03-20T10:39:40.197Z,11.05
2023-03-20T10:42:15.593Z,11.13
2023-03-20T10:44:47.668Z,12.65
2023-03-20T10:47:19.659Z,11.50
2023-03-20T10:49:51.754Z,11.90
2023-03-20T10:52:23.679Z,11.57
2023-03-20T10:54:57.395Z,13.02
2023-03-20T10:57:27.124Z,12.00
2023-03-20T10:59:57.792Z,10.45
2023-03-20T11:02:29.956Z,13.88
2023-03-20T11:04:57.785Z,11.07
2023-03-20T11:07:27.406Z,13.68
2023-03-20T11:10:16.496Z,11.68
2023-03-20T11:12:45.760Z,10.32
2023-03-20T11:15:22.670Z,13.43
2023-03-20T11:17:58.317Z,8.60
2023-03-20T11:20:26.993Z,8.35
2023-03-20T11:23:00.536Z,8.43
2023-03-20T11:25:33.977Z,15.00
2023-03-20T11:28:20.099Z,10.00
2023-03-20T11:31:03.944Z,9.05
2023-03-20T11:33:34.663Z,8.15
2023-03-20T11:36:02.486Z,10.93
2023-03-20T11:38:32.512Z,9.13
2023-03-20T11:41:06.364Z,8.25
2023-03-20T11:43:39.644Z,8.68
2023-03-20T11:46:13.723Z,7.95
2023-03-20T11:48:44.365Z,7.75
2023-03-20T11:51:16.243Z,7.97
2023-03-20T11:54:02.661Z,8.63
2023-03-20T11:56:33.692Z,8.32
2023-03-20T11:59:05.164Z,8.43
2023-03-20T12:01:44.610Z,8.15
2023-03-20T12:04:16.676Z,8.60
2023-03-20T12:06:49.071Z,9.23
2023-03-20T12:09:31.050Z,8.38
2023-03-20T12:12:03.558Z,9.13
2023-03-20T12:14:43.333Z,9.77
2023-03-20T12:17:29.738Z,7.90
2023-03-20T12:20:00.567Z,8.73
2023-03-20T12:22:34.565Z,8.48
2023-03-20T12:25:10.286Z,8.50
2023-03-20T12:27:47.217Z,8.32
2023-03-20T12:30:18.881Z,8.38
2023-03-20T12:32:54.860Z,8.20
2023-03-20T12:35:28.719Z,8.32
2023-03-20T12:37:56.621Z,8.90
2023-03-20T12:40:43.587Z,9.75
2023-03-20T12:43:16.716Z,9.25
2023-03-20T12:45:51.341Z,8.75
2023-03-20T12:48:37.974Z,9.23
2023-03-20T12:51:13.679Z,8.32
2023-03-20T12:53:51.039Z,8.73
2023-03-20T12:56:30.012Z,9.27
2023-03-20T12:59:05.451Z,9.93
2023-03-20T13:01:36.974Z,9.75
2023-03-20T13:04:37.497Z,10.05
2023-03-20T13:07:12.695Z,9.90
2023-03-20T13:09:57.271Z,9.63
2023-03-20T13:12:36.781Z,9.60
2023-03-20T13:15:17.052Z,10.02
2023-03-20T13:17:51.312Z,9.55
2023-03-20T13:20:31.981Z,10.27
2023-03-20T13:23:13.966Z,10.63
2023-03-20T13:25:53.733Z,9.80
2023-03-20T13:28:32.788Z,10.75
2023-03-20T13:31:07.687Z,10.10
2023-03-20T13:33:45.782Z,10.32
2023-03-20T13:36:25.438Z,10.57
2023-03-20T13:39:00.507Z,10.10
2023-03-20T13:41:29.062Z,10.57
2023-03-20T13:44:01.192Z,10.88
2023-03-20T13:46:37.202Z,11.15
2023-03-20T13:49:14.025Z,9.82
2023-03-20T13:51:48.451Z,9.60
2023-03-20T13:54:27.720Z,10.68
2023-03-20T13:57:00.819Z,11.02
2023-03-20T13:59:45.519Z,11.52
2023-03-20T14:02:27.787Z,11.15
2023-03-20T14:05:03.866Z,11.35
2023-03-20T14:07:34.342Z,11.40
2023-03-20T14:10:31.899Z,11.35
2023-03-20T14:13:02.765Z,10.57
2023-03-20T14:15:34.891Z,12.30
2023-03-20T14:18:08.317Z,12.55
2023-03-20T14:20:39.560Z,11.88
2023-03-20T14:23:08.382Z,12.45
2023-03-20T14:25:41.258Z,11.75
2023-03-20T14:28:25.306Z,11.70
2023-03-20T14:31:14.374Z,11.80
2023-03-20T14:33:54.041Z,13.23
2023-03-20T14:36:28.038Z,12.45
2023-03-20T14:39:06.173Z,12.82
2023-03-20T14:41:41.909Z,12.27
2023-03-20T14:44:25.764Z,13.40
2023-03-20T14:47:02.228Z,13.50
2023-03-20T14:49:51.883Z,14.13
2023-03-20T14:52:35.998Z,12.50
2023-03-20T14:55:28.805Z,12.20
2023-03-20T14:57:57.525Z,14.00
2023-03-20T15:00:27.645Z,14.43
2023-03-20T15:03:05.459Z,14.50
2023-03-20T15:05:37.467Z,15.88
2023-03-20T15:08:09.442Z,16.83
2023-03-20T15:10:47.373Z,16.50
2023-03-20T15:13:16.872Z,16.30
2023-03-20T15:15:54.940Z,15.77
2023-03-20T15:18:24.478Z,18.17
2023-03-20T15:20:54.982Z,17.50
2023-03-20T15:23:22.743Z,18.45
2023-03-20T15:25:51.720Z,18.10
2023-03-20T15:28:23.651Z,19.80
2023-03-20T15:30:54.831Z,18.80
2023-03-20T15:33:27.528Z,19.85
2023-03-20T15:35:57.403Z,21.77
2023-03-20T15:38:31.180Z,21.83
2023-03-20T15:40:58.994Z,21.95
2023-03-20T15:43:28.857Z,21.80
2023-03-20T15:46:16.278Z,21.57
2023-03-20T15:48:48.422Z,22.17
2023-03-20T15:51:19.081Z,23.80
2023-03-20T15:53:49.552Z,23.00
2023-03-20T15:56:20.066Z,22.67
2023-03-20T15:58:50.466Z,23.00
2023-03-20T16:01:21.417Z,22.67
2023-03-20T16:03:50.026Z,23.30
2023-03-20T16:06:21.878Z,23.67
2023-03-20T16:08:59.181Z,23.60
2023-03-20T16:11:35.968Z,22.73
2023-03-20T16:14:04.551Z,22.17
2023-03-20T16:16:37.249Z,22.67
2023-03-20T16:19:06.445Z,22.63
2023-03-20T16:21:39.805Z,22.20
2023-03-20T16:24:11.326Z,21.43
2023-03-20T16:26:43.486Z,22.10
2023-03-20T16:29:14.232Z,22.37
2023-03-20T16:31:48.027Z,21.37
2023-03-20T16:34:19.780Z,20.80
2023-03-20T16:36:54.850Z,22.07
2023-03-20T16:39:27.100Z,21.50
2023-03-20T16:42:16.977Z,20.67
2023-03-20T16:44:45.027Z,22.13
2023-03-20T16:47:20.381Z,22.10
2023-03-20T16:50:16.781Z,21.37
2023-03-20T16:52:52.761Z,20.90
2023-03-20T16:55:27.342Z,22.93
2023-03-20T16:57:59.052Z,22.30
2023-03-20T17:00:29.969Z,21.97
2023-03-20T17:03:08.307Z,22.63
2023-03-20T17:05:46.988Z,22.93
2023-03-20T17:08:18.161Z,26.73
2023-03-20T17:10:50.843Z,27.03
2023-03-20T17:13:18.844Z,22.27
2023-03-20T17:15:46.778Z,22.93
2023-03-20T17:18:15.432Z,23.63
2023-03-20T17:20:43.477Z,23.07
2023-03-20T17:23:20.175Z,22.67
2023-03-20T17:25:49.109Z,22.20
2023-03-20T17:28:22.843Z,22.13
2023-03-20T17:30:52.412Z,22.00
2023-03-20T17:33:21.910Z,21.07
2023-03-20T17:35:50.180Z,22.63
2023-03-20T17:38:22.161Z,22.20
2023-03-20T17:40:50.871Z,23.03
2023-03-20T17:43:20.010Z,22.00
2023-03-20T17:45:48.514Z,22.07
2023-03-20T17:48:20.502Z,23.30
2023-03-20T17:50:50.865Z,23.43
2023-03-20T17:53:23.963Z,23.30
2023-03-20T17:55:51.904Z,22.67
2023-03-20T17:58:22.433Z,22.37
2023-03-20T18:00:50.936Z,22.33
2023-03-20T18:03:19.314Z,22.13
2023-03-20T18:05:48.727Z,21.83
2023-03-20T18:08:19.904Z,22.03
2023-03-20T18:10:50.495Z,22.30
2023-03-20T18:13:21.032Z,21.43
2023-03-20T18:15:49.645Z,22.17
2023-03-20T18:18:17.488Z,22.40
2023-03-20T18:20:46.709Z,21.33
2023-03-20T18:23:15.222Z,21.67
2023-03-20T18:25:43.353Z,22.83
2023-03-20T18:28:20.604Z,20.13
2023-03-20T18:30:48.776Z,20.13
2023-03-20T18:33:17.701Z,21.23
2023-03-20T18:35:45.598Z,22.07
2023-03-20T18:38:14.483Z,21.07
2023-03-20T18:40:43.142Z,22.10
2023-03-20T18:43:11.616Z,25.63
2023-03-20T18:45:41.205Z,21.10
2023-03-20T18:48:13.301Z,23.30
2023-03-20T18:50:43.176Z,21.60
2023-03-20T18:53:11.784Z,21.43
2023-03-20T18:55:39.497Z,22.33
2023-03-20T18:58:09.029Z,22.90
2023-03-20T19:00:40.111Z,21.53
2023-03-20T19:03:11.967Z,21.90
2023-03-20T19:05:40.241Z,21.70
2023-03-20T19:08:08.170Z,21.00
2023-03-20T19:10:38.828Z,22.70
2023-03-20T19:13:08.314Z,22.60
2023-03-20T19:15:38.784Z,23.33
2023-03-20T19:18:09.437Z,22.80
2023-03-20T19:20:39.669Z,23.77
2023-03-20T19:23:09.074Z,22.50
2023-03-20T19:25:38.111Z,23.50
2023-03-20T19:28:07.753Z,23.10
2023-03-20T19:30:38.323Z,23.00
2023-03-20T19:33:07.711Z,23.77
2023-03-20T19:36:01.768Z,22.90
2023-03-20T19:38:25.340Z,24.03
2023-03-20T19:40:53.781Z,22.43
2023-03-20T19:43:22.401Z,23.07
2023-03-20T19:45:54.976Z,21.70
2023-03-20T19:48:27.028Z,21.60
2023-03-20T19:50:57.608Z,21.20
2023-03-20T19:53:29.323Z,22.43
2023-03-20T19:55:58.011Z,24.17
2023-03-20T19:58:25.784Z,22.97
2023-03-20T20:00:57.628Z,23.67
2023-03-20T20:03:40.678Z,22.47
2023-03-20T20:06:10.010Z,22.77
2023-03-20T20:08:49.061Z,22.83
2023-03-20T20:11:17.580Z,21.73
2023-03-20T20:14:05.289Z,23.33
2023-03-20T20:16:34.117Z,21.60
2023-03-20T20:19:02.413Z,26.50
2023-03-20T20:22:17.289Z,29.37
2023-03-20T20:24:20.080Z,31.77
2023-03-20T20:26:54.944Z,29.33
2023-03-20T20:29:28.149Z,25.93
2023-03-20T20:31:56.037Z,27.07
2023-03-20T20:40:00.656Z,22.33
2023-03-20T20:42:28.391Z,22.63
2023-03-20T20:44:56.125Z,21.60
2023-03-20T20:47:23.982Z,20.70
2023-03-20T20:49:51.849Z,21.80
2023-03-20T20:52:20.923Z,22.80
2023-03-20T20:54:48.662Z,22.40
2023-03-20T20:57:16.502Z,21.23
2023-03-20T20:59:44.377Z,20.90
2023-03-20T21:02:13.011Z,20.90
2023-03-20T21:04:42.096Z,22.13
2023-03-20T21:07:12.147Z,21.30
2023-03-20T21:09:42.155Z,22.70
2023-03-20T21:12:19.620Z,21.30
2023-03-20T21:14:58.869Z,20.20
2023-03-20T21:17:26.911Z,20.27
2023-03-20T21:19:54.621Z,19.20
2023-03-20T21:22:22.625Z,20.13
2023-03-20T21:25:00.707Z,19.60
2023-03-20T21:27:35.132Z,18.77
2023-03-20T21:30:03.688Z,19.33
2023-03-20T21:32:36.550Z,19.10
2023-03-20T21:35:07.535Z,19.27
2023-03-20T21:40:24.905Z,19.70
2023-03-20T21:42:52.961Z,19.63
2023-03-20T21:51:53.215Z,18.47
2023-03-20T22:02:22.133Z,18.57
2023-03-20T22:05:34.869Z,18.60
2023-03-20T22:14:12.601Z,17.40
2023-03-20T22:19:45.888Z,18.47
2023-03-20T22:22:23.012Z,18.50
2023-03-20T22:31:03.262Z,17.37
2023-03-20T22:33:54.823Z,17.37
2023-03-20T22:39:11.811Z,18.97
2023-03-20T22:42:12.541Z,19.77
2023-03-20T22:47:00.600Z,19.07
2023-03-20T22:49:28.343Z,18.07
2023-03-20T22:52:19.675Z,18.67
2023-03-20T22:54:43.935Z,18.43
2023-03-20T22:57:11.674Z,18.63
2023-03-20T22:59:39.613Z,18.37
2023-03-20T23:02:09.192Z,19.60
2023-03-20T23:04:36.983Z,19.77
2023-03-20T23:07:05.788Z,19.43
2023-03-20T23:09:33.504Z,18.90
2023-03-20T23:12:01.355Z,19.17
2023-03-20T23:14:36.281Z,18.07
2023-03-20T23:17:12.139Z,18.77
2023-03-20T23:19:47.787Z,19.20
2023-03-20T23:22:18.093Z,19.23
2023-03-20T23:24:45.905Z,19.30
2023-03-20T23:27:13.660Z,18.47
2023-03-20T23:29:41.558Z,19.80
2023-03-20T23:32:09.370Z,19.03
2023-03-20T23:34:39.020Z,19.07
2023-03-20T23:37:06.895Z,18.37
2023-03-20T23:39:34.636Z,19.17
2023-03-20T23:42:14.457Z,18.30
2023-03-20T23:44:56.345Z,18.93
2023-03-20T23:47:30.033Z,20.10
2023-03-20T23:50:06.416Z,19.27
2023-03-20T23:52:38.414Z,19.37
2023-03-20T23:55:09.115Z,19.17
2023-03-20T23:57:36.819Z,21.40
